createdAt,value
2017-10-14T00:00:32.470Z,97.10
2017-10-14T00:03:01.339Z,97.30
2017-10-14T00:05:28.842Z,97.30
2017-10-14T00:07:56.320Z,97.30
2017-10-14T00:10:24.730Z,96.90
2017-10-14T00:12:52.228Z,96.80
2017-10-14T00:15:20.023Z,96.60
2017-10-14T00:17:47.515Z,96.50
2017-10-14T00:20:15.018Z,96.80
2017-10-14T00:22:43.015Z,96.70
2017-10-14T00:25:11.491Z,96.70
2017-10-14T00:27:38.975Z,96.80
2017-10-14T00:30:06.482Z,96.90
2017-10-14T00:32:33.975Z,97.20
2017-10-14T00:35:01.734Z,97.30
2017-10-14T00:37:29.211Z,97.50
2017-10-14T00:39:56.718Z,97.20
2017-10-14T00:42:24.215Z,96.90
2017-10-14T00:44:51.712Z,96.90
2017-10-14T00:47:19.587Z,97.20
2017-10-14T00:49:47.108Z,97.20
2017-10-14T00:52:14.603Z,97.20
2017-10-14T00:54:42.108Z,97.30
2017-10-14T00:57:09.600Z,97.40
2017-10-14T00:59:37.506Z,97.50
2017-10-14T01:02:04.991Z,97.50
2017-10-14T01:04:32.499Z,97.50
2017-10-14T01:06:59.976Z,97.50
2017-10-14T01:09:27.479Z,97.40
2017-10-14T01:11:56.052Z,97.40
2017-10-14T01:14:23.555Z,97.30
2017-10-14T01:16:51.448Z,97.20
2017-10-14T01:19:18.964Z,97.20
2017-10-14T01:21:46.448Z,97.20
2017-10-14T01:24:14.945Z,97.20
2017-10-14T01:26:42.439Z,97.20
2017-10-14T01:29:09.972Z,97.20
2017-10-14T01:31:37.456Z,97.30
2017-10-14T01:34:05.670Z,97.30
2017-10-14T01:36:33.544Z,97.30
2017-10-14T01:39:01.057Z,97.40
2017-10-14T01:41:28.555Z,97.30
2017-10-14T01:43:58.402Z,97.50
2017-10-14T01:46:25.882Z,97.50
2017-10-14T01:48:53.385Z,97.40
2017-10-14T01:51:20.873Z,97.40
2017-10-14T01:53:48.355Z,97.40
2017-10-14T01:56:15.856Z,97.40
2017-10-14T01:58:43.347Z,97.40
2017-10-14T02:01:10.852Z,97.40
2017-10-14T02:03:38.727Z,97.50
2017-10-14T02:06:06.611Z,97.50
2017-10-14T02:08:34.105Z,97.50
2017-10-14T02:11:01.612Z,97.50
2017-10-14T02:13:29.487Z,97.30
2017-10-14T02:15:57.368Z,97.20
2017-10-14T02:18:24.870Z,97.20
2017-10-14T02:20:52.378Z,97.20
2017-10-14T02:23:19.927Z,97.00
2017-10-14T02:25:47.420Z,96.70
2017-10-14T02:28:14.922Z,96.70
2017-10-14T02:30:42.408Z,96.70
2017-10-14T02:33:09.914Z,96.80
2017-10-14T02:35:38.326Z,96.80
2017-10-14T02:38:08.198Z,97.10
2017-10-14T02:40:35.684Z,97.10
2017-10-14T02:43:03.177Z,97.30
2017-10-14T02:45:30.672Z,97.20
2017-10-14T02:47:58.167Z,97.30
2017-10-14T02:50:25.647Z,97.40
2017-10-14T02:52:53.156Z,97.40
2017-10-14T02:55:21.580Z,97.50
2017-10-14T02:57:49.487Z,97.50
2017-10-14T03:00:16.975Z,97.50
2017-10-14T03:02:44.534Z,97.50
2017-10-14T03:05:12.014Z,97.50
2017-10-14T03:07:39.916Z,97.60
2017-10-14T03:10:08.115Z,97.60
2017-10-14T03:12:37.551Z,97.80
2017-10-14T03:15:05.032Z,97.80
2017-10-14T03:17:33.555Z,97.80
2017-10-14T03:20:01.051Z,97.90
2017-10-14T03:22:29.278Z,98.30
2017-10-14T03:24:56.811Z,98.30
2017-10-14T03:27:24.304Z,98.40
2017-10-14T03:29:52.375Z,98.50
2017-10-14T03:32:19.856Z,98.60
2017-10-14T03:34:47.359Z,98.60
2017-10-14T03:37:15.148Z,98.50
2017-10-14T03:39:42.663Z,98.50
2017-10-14T03:42:11.486Z,98.60
2017-10-14T03:44:38.984Z,98.60
2017-10-14T03:47:06.482Z,98.80
2017-10-14T03:49:34.904Z,99.00
2017-10-14T03:52:02.408Z,99.20
2017-10-14T03:54:31.204Z,99.30
2017-10-14T03:56:58.712Z,99.30
2017-10-14T03:59:26.218Z,99.30
2017-10-14T04:01:53.727Z,99.30
2017-10-14T04:04:21.229Z,99.30
2017-10-14T04:06:49.111Z,99.00
2017-10-14T04:09:17.609Z,99.00
2017-10-14T04:11:45.636Z,99.00
2017-10-14T04:14:13.514Z,99.10
2017-10-14T04:16:41.420Z,99.30
2017-10-14T04:19:09.828Z,99.30
2017-10-14T04:21:37.326Z,99.30
2017-10-14T04:24:04.819Z,99.30
2017-10-14T04:26:32.322Z,99.40
2017-10-14T04:28:59.821Z,99.40
2017-10-14T04:31:27.331Z,99.40
2017-10-14T04:33:55.743Z,99.20
2017-10-14T04:36:23.254Z,99.10
2017-10-14T04:38:50.744Z,98.90
2017-10-14T04:41:18.706Z,98.00
2017-10-14T04:43:46.603Z,97.80
2017-10-14T04:46:14.083Z,97.80
2017-10-14T04:48:41.638Z,97.80
2017-10-14T04:51:09.469Z,98.00
2017-10-14T04:53:36.983Z,97.70
2017-10-14T04:56:04.471Z,97.40
2017-10-14T04:58:32.352Z,97.40
2017-10-14T05:00:59.875Z,97.40
2017-10-14T05:03:27.417Z,97.70
2017-10-14T05:05:54.926Z,97.80
2017-10-14T05:08:22.808Z,98.00
2017-10-14T05:10:50.728Z,98.00
2017-10-14T05:13:18.236Z,98.00
2017-10-14T05:15:45.731Z,98.10
2017-10-14T05:18:13.337Z,98.10
2017-10-14T05:20:41.367Z,98.00
2017-10-14T05:23:08.879Z,98.00
2017-10-14T05:25:37.147Z,98.00
2017-10-14T05:28:06.616Z,98.20
2017-10-14T05:30:34.103Z,98.30
2017-10-14T05:33:01.979Z,97.90
2017-10-14T05:35:29.491Z,97.90
2017-10-14T05:37:57.953Z,98.00
2017-10-14T05:40:25.460Z,98.00
2017-10-14T05:42:53.350Z,98.10
2017-10-14T05:45:20.887Z,98.10
2017-10-14T05:47:48.773Z,98.10
2017-10-14T05:50:16.260Z,98.00
2017-10-14T05:52:44.654Z,97.70
2017-10-14T05:55:12.143Z,97.50
2017-10-14T05:57:40.038Z,97.30
2017-10-14T06:00:07.529Z,97.30
2017-10-14T06:02:36.952Z,97.30
2017-10-14T06:05:04.444Z,97.20
2017-10-14T06:07:32.329Z,97.70
2017-10-14T06:09:59.831Z,97.70
2017-10-14T06:12:27.315Z,97.80
2017-10-14T06:14:55.221Z,98.20
2017-10-14T06:17:22.711Z,98.20
2017-10-14T06:19:50.215Z,98.50
2017-10-14T06:22:17.703Z,98.60
2017-10-14T06:24:45.228Z,98.80
2017-10-14T06:27:13.540Z,98.60
2017-10-14T06:29:41.018Z,98.60
2017-10-14T06:32:08.525Z,98.50
2017-10-14T06:34:36.404Z,98.90
2017-10-14T06:37:03.914Z,98.90
2017-10-14T06:39:31.398Z,98.90
2017-10-14T06:41:59.280Z,98.30
2017-10-14T06:44:28.146Z,98.10
2017-10-14T06:46:55.915Z,98.10
2017-10-14T06:49:23.826Z,98.00
2017-10-14T06:51:51.326Z,97.90
2017-10-14T06:54:19.435Z,98.30
2017-10-14T06:56:46.923Z,98.30
2017-10-14T06:59:14.407Z,98.70
2017-10-14T07:01:45.851Z,98.80
2017-10-14T07:04:13.337Z,98.80
2017-10-14T07:06:40.863Z,98.90
2017-10-14T07:09:08.355Z,98.70
2017-10-14T07:11:36.262Z,98.60
2017-10-14T07:14:03.747Z,98.60
2017-10-14T07:16:33.203Z,98.50
2017-10-14T07:19:00.691Z,98.40
2017-10-14T07:21:39.007Z,98.40
2017-10-14T07:24:06.519Z,98.60
2017-10-14T07:26:34.396Z,98.80
2017-10-14T07:29:02.291Z,98.90
2017-10-14T07:31:29.784Z,98.90
2017-10-14T07:33:57.304Z,98.90
2017-10-14T07:36:24.870Z,98.50
2017-10-14T07:38:54.331Z,98.40
2017-10-14T07:41:22.273Z,98.50
2017-10-14T07:43:49.766Z,98.50
2017-10-14T07:46:17.680Z,98.40
2017-10-14T07:48:45.530Z,98.40
2017-10-14T07:51:13.056Z,98.30
2017-10-14T07:53:40.978Z,97.80
2017-10-14T07:56:08.475Z,97.90
2017-10-14T07:58:36.402Z,97.70
2017-10-14T08:01:04.856Z,97.70
2017-10-14T08:03:32.344Z,97.40
2017-10-14T08:06:01.928Z,97.20
2017-10-14T08:08:29.454Z,96.90
2017-10-14T08:10:57.353Z,96.60
2017-10-14T08:13:24.853Z,96.60
2017-10-14T08:15:52.393Z,96.70
2017-10-14T08:18:19.895Z,96.70
2017-10-14T08:20:47.427Z,96.60
2017-10-14T08:23:14.916Z,96.40
2017-10-14T08:25:42.799Z,96.20
2017-10-14T08:28:10.295Z,96.30
2017-10-14T08:30:37.791Z,96.00
2017-10-14T08:33:05.691Z,95.50
2017-10-14T08:35:33.197Z,95.50
2017-10-14T08:38:00.676Z,95.30
2017-10-14T08:40:28.566Z,94.60
2017-10-14T08:42:57.004Z,94.60
2017-10-14T08:45:24.487Z,94.30
2017-10-14T08:47:52.383Z,94.30
2017-10-14T08:50:19.872Z,94.30
2017-10-14T08:52:47.392Z,93.90
2017-10-14T08:55:14.893Z,93.90
2017-10-14T08:57:42.398Z,93.70
2017-10-14T09:00:09.882Z,93.10
2017-10-14T09:02:37.370Z,93.30
2017-10-14T09:05:04.876Z,93.20
2017-10-14T09:07:32.362Z,93.10
2017-10-14T09:09:59.868Z,92.90
2017-10-14T09:12:27.740Z,92.40
2017-10-14T09:14:56.595Z,92.10
2017-10-14T09:17:24.090Z,92.10
2017-10-14T09:19:51.963Z,91.50
2017-10-14T09:22:21.771Z,91.60
2017-10-14T09:24:49.295Z,91.60
2017-10-14T09:27:16.772Z,91.20
2017-10-14T09:29:44.679Z,90.40
2017-10-14T09:32:12.161Z,90.40
2017-10-14T09:34:39.666Z,90.90
2017-10-14T09:37:07.539Z,90.90
2017-10-14T09:39:35.435Z,90.90
2017-10-14T09:42:02.918Z,90.80
2017-10-14T09:44:30.448Z,90.60
2017-10-14T09:46:58.927Z,90.80
2017-10-14T09:49:26.767Z,90.40
2017-10-14T09:51:54.988Z,89.20
2017-10-14T09:54:22.791Z,89.20
2017-10-14T09:56:50.676Z,90.20
2017-10-14T09:59:18.575Z,89.50
2017-10-14T10:01:46.078Z,89.50
2017-10-14T10:04:13.572Z,89.00
2017-10-14T10:06:42.988Z,88.90
2017-10-14T10:09:12.650Z,89.00
2017-10-14T10:11:40.153Z,89.10
2017-10-14T10:14:07.632Z,88.60
2017-10-14T10:16:35.127Z,88.40
2017-10-14T10:19:03.039Z,87.90
2017-10-14T10:21:30.531Z,87.90
2017-10-14T10:23:58.027Z,87.10
2017-10-14T10:26:25.904Z,87.50
2017-10-14T10:28:53.408Z,87.50
2017-10-14T10:31:20.896Z,86.30
2017-10-14T10:33:48.398Z,86.30
2017-10-14T10:36:15.884Z,86.20
2017-10-14T10:38:44.357Z,85.80
2017-10-14T10:41:11.871Z,85.80
2017-10-14T10:43:40.126Z,85.40
2017-10-14T10:46:08.604Z,85.50
2017-10-14T10:48:36.100Z,85.60
2017-10-14T10:51:03.599Z,84.50
2017-10-14T10:53:31.083Z,85.00
2017-10-14T10:55:58.973Z,84.40
2017-10-14T10:58:26.448Z,84.40
2017-10-14T11:00:53.944Z,85.00
2017-10-14T11:03:21.436Z,84.90
2017-10-14T11:05:49.343Z,83.40
2017-10-14T11:08:17.993Z,83.40
2017-10-14T11:10:45.883Z,83.80
2017-10-14T11:13:13.359Z,83.80
2017-10-14T11:15:40.875Z,83.40
2017-10-14T11:18:08.359Z,84.20
2017-10-14T11:20:35.917Z,83.10
2017-10-14T11:23:04.333Z,83.50
2017-10-14T11:25:31.836Z,82.90
2017-10-14T11:27:59.319Z,83.00
2017-10-14T11:30:28.735Z,82.30
2017-10-14T11:32:56.215Z,82.60
2017-10-14T11:35:25.384Z,83.50
2017-10-14T11:37:52.874Z,82.70
2017-10-14T11:40:21.898Z,82.40
2017-10-14T11:42:49.769Z,83.10
2017-10-14T11:45:17.276Z,83.20
2017-10-14T11:47:44.758Z,82.00
2017-10-14T11:50:12.256Z,82.20
2017-10-14T11:52:40.693Z,82.20
2017-10-14T11:55:08.521Z,81.90
2017-10-14T11:57:36.007Z,82.20
2017-10-14T12:00:04.329Z,82.00
2017-10-14T12:02:31.812Z,81.80
2017-10-14T12:05:00.276Z,81.30
2017-10-14T12:07:28.742Z,81.50
2017-10-14T12:09:56.254Z,81.80
2017-10-14T12:12:23.734Z,81.60
2017-10-14T12:14:51.258Z,81.20
2017-10-14T12:17:18.739Z,81.20
2017-10-14T12:19:46.283Z,81.10
2017-10-14T12:22:13.769Z,81.50
2017-10-14T12:24:42.639Z,80.50
2017-10-14T12:27:10.132Z,80.60
2017-10-14T12:29:38.068Z,81.30
2017-10-14T12:32:05.559Z,81.30
2017-10-14T12:34:33.461Z,80.20
2017-10-14T12:37:00.943Z,80.30
2017-10-14T12:39:29.423Z,80.10
2017-10-14T12:41:56.907Z,80.50
2017-10-14T12:44:24.415Z,80.70
2017-10-14T12:46:51.890Z,80.90
2017-10-14T12:49:19.430Z,79.80
2017-10-14T12:51:46.911Z,79.80
2017-10-14T12:54:14.422Z,80.10
2017-10-14T12:56:41.915Z,79.80
2017-10-14T12:59:09.427Z,79.80
2017-10-14T13:01:37.636Z,79.80
2017-10-14T13:04:05.131Z,79.80
2017-10-14T13:06:32.617Z,79.40
2017-10-14T13:09:00.520Z,79.40
2017-10-14T13:11:28.002Z,79.40
2017-10-14T13:13:57.482Z,79.40
2017-10-14T13:16:24.999Z,79.60
2017-10-14T13:18:52.903Z,79.20
2017-10-14T13:21:20.387Z,79.20
2017-10-14T13:23:47.886Z,79.40
2017-10-14T13:26:15.767Z,79.20
2017-10-14T13:28:43.271Z,79.20
2017-10-14T13:31:10.748Z,79.00
2017-10-14T13:33:38.260Z,79.20
2017-10-14T13:36:06.695Z,79.10
2017-10-14T13:38:34.207Z,79.30
2017-10-14T13:41:01.716Z,78.10
2017-10-14T13:43:29.641Z,78.60
2017-10-14T13:45:57.567Z,78.90
2017-10-14T13:48:25.466Z,79.00
2017-10-14T13:50:53.394Z,79.00
2017-10-14T13:53:21.311Z,79.60
2017-10-14T13:55:49.592Z,79.60
2017-10-14T13:58:17.447Z,79.00
2017-10-14T14:00:45.213Z,78.70
2017-10-14T14:03:14.014Z,79.00
2017-10-14T14:05:41.513Z,79.00
2017-10-14T14:08:09.529Z,78.30
2017-10-14T14:10:39.995Z,78.30
2017-10-14T14:13:07.983Z,78.00
2017-10-14T14:15:35.889Z,78.40
2017-10-14T14:18:04.464Z,78.40
2017-10-14T14:20:32.947Z,78.40
2017-10-14T14:23:00.890Z,78.30
2017-10-14T14:25:28.886Z,78.20
2017-10-14T14:27:56.398Z,78.20
2017-10-14T14:30:24.308Z,79.20
2017-10-14T14:32:52.789Z,79.20
2017-10-14T14:35:20.310Z,78.60
2017-10-14T14:37:49.175Z,79.00
2017-10-14T14:40:16.804Z,79.00
2017-10-14T14:42:44.362Z,78.90
2017-10-14T14:45:11.900Z,77.90
2017-10-14T14:47:39.394Z,78.10
2017-10-14T14:50:06.895Z,77.60
2017-10-14T14:52:34.396Z,78.70
2017-10-14T14:55:01.880Z,79.00
2017-10-14T14:57:29.399Z,79.30
2017-10-14T14:59:57.354Z,77.90
2017-10-14T15:02:25.256Z,78.50
2017-10-14T15:04:52.754Z,78.50
2017-10-14T15:07:20.255Z,78.70
2017-10-14T15:09:47.739Z,79.20
2017-10-14T15:12:15.282Z,79.50
2017-10-14T15:14:42.774Z,79.80
2017-10-14T15:17:12.243Z,80.40
2017-10-14T15:19:39.751Z,80.60
2017-10-14T15:22:08.176Z,81.30
2017-10-14T15:24:35.675Z,81.50
2017-10-14T15:27:03.160Z,81.90
2017-10-14T15:29:31.063Z,81.90
2017-10-14T15:31:59.491Z,81.90
2017-10-14T15:34:27.977Z,81.30
2017-10-14T15:36:55.474Z,81.60
2017-10-14T15:39:22.963Z,81.70
2017-10-14T15:41:51.398Z,82.10
2017-10-14T15:44:20.214Z,82.90
2017-10-14T15:46:47.720Z,82.90
2017-10-14T15:49:15.222Z,83.70
2017-10-14T15:51:42.706Z,83.90
2017-10-14T15:54:10.203Z,83.20
2017-10-14T15:56:38.084Z,85.40
2017-10-14T15:59:05.976Z,85.60
2017-10-14T16:01:33.454Z,85.60
2017-10-14T16:04:00.974Z,86.00
2017-10-14T16:06:28.467Z,86.20
2017-10-14T16:08:56.831Z,86.40
2017-10-14T16:11:24.347Z,86.60
2017-10-14T16:13:51.848Z,86.60
2017-10-14T16:16:19.327Z,86.40
2017-10-14T16:18:46.812Z,86.60
2017-10-14T16:21:16.265Z,87.10
2017-10-14T16:23:43.750Z,87.30
2017-10-14T16:26:11.253Z,87.40
2017-10-14T16:28:39.155Z,87.40
2017-10-14T16:31:06.662Z,87.40
2017-10-14T16:33:38.130Z,87.60
2017-10-14T16:36:06.003Z,88.60
2017-10-14T16:38:33.890Z,88.80
2017-10-14T16:41:02.195Z,88.80
2017-10-14T16:43:29.686Z,89.10
2017-10-14T16:45:57.179Z,89.30
2017-10-14T16:48:24.674Z,89.50
2017-10-14T16:50:52.168Z,89.70
2017-10-14T16:53:21.035Z,90.90
2017-10-14T16:55:49.349Z,90.90
2017-10-14T16:58:17.979Z,91.10
2017-10-14T17:00:45.480Z,91.60
2017-10-14T17:03:14.229Z,92.00
2017-10-14T17:05:41.739Z,92.00
2017-10-14T17:08:09.219Z,92.10
2017-10-14T17:10:38.634Z,92.20
2017-10-14T17:13:06.632Z,92.20
2017-10-14T17:15:34.668Z,92.30
2017-10-14T17:18:02.622Z,92.60
2017-10-14T17:20:30.115Z,92.60
2017-10-14T17:22:59.595Z,92.90
2017-10-14T17:25:27.083Z,92.80
2017-10-14T17:27:56.003Z,92.70
2017-10-14T17:30:24.811Z,92.70
2017-10-14T17:32:52.336Z,92.70
2017-10-14T17:35:19.887Z,92.90
2017-10-14T17:37:49.322Z,93.20
2017-10-14T17:40:17.219Z,93.50
2017-10-14T17:42:44.727Z,93.50
2017-10-14T17:45:14.011Z,93.50
2017-10-14T17:47:42.387Z,93.50
2017-10-14T17:50:09.883Z,93.80
2017-10-14T17:52:37.779Z,94.00
2017-10-14T17:55:05.420Z,94.00
2017-10-14T17:57:32.907Z,94.20
2017-10-14T18:00:01.372Z,94.30
2017-10-14T18:02:28.862Z,94.30
2017-10-14T18:04:56.368Z,94.30
2017-10-14T18:07:24.251Z,94.30
2017-10-14T18:09:51.748Z,94.30
2017-10-14T18:12:19.267Z,94.40
2017-10-14T18:14:46.780Z,94.50
2017-10-14T18:17:14.267Z,94.70
2017-10-14T18:19:43.087Z,94.80
2017-10-14T18:22:10.584Z,94.80
2017-10-14T18:24:38.072Z,95.00
2017-10-14T18:27:05.971Z,95.10
2017-10-14T18:29:33.447Z,95.20
2017-10-14T18:32:00.963Z,95.20
2017-10-14T18:34:28.451Z,95.20
2017-10-14T18:36:55.951Z,95.40
2017-10-14T18:39:23.439Z,95.60
2017-10-14T18:41:51.817Z,95.90
2017-10-14T18:44:19.322Z,96.10
2017-10-14T18:46:46.845Z,96.10
2017-10-14T18:49:14.344Z,96.20
2017-10-14T18:51:41.833Z,96.50
2017-10-14T18:54:09.738Z,96.50
2017-10-14T18:56:37.294Z,96.50
2017-10-14T18:59:04.795Z,96.50
2017-10-14T19:01:32.294Z,96.60
2017-10-14T19:03:59.799Z,96.60
2017-10-14T19:06:29.257Z,96.50
2017-10-14T19:08:56.747Z,96.60
2017-10-14T19:11:24.246Z,96.70
2017-10-14T19:13:51.750Z,96.60
2017-10-14T19:16:19.639Z,96.50
2017-10-14T19:18:47.128Z,96.70
2017-10-14T19:21:16.992Z,96.50
2017-10-14T19:23:44.515Z,96.50
2017-10-14T19:26:13.369Z,96.80
2017-10-14T19:28:40.888Z,96.80
2017-10-14T19:31:08.371Z,97.10
2017-10-14T19:33:36.841Z,97.10
2017-10-14T19:36:04.316Z,97.10
2017-10-14T19:38:31.864Z,97.10
2017-10-14T19:40:59.383Z,97.10
2017-10-14T19:43:26.891Z,97.00
2017-10-14T19:45:55.359Z,97.00
2017-10-14T19:48:22.838Z,96.70
2017-10-14T19:50:50.347Z,96.50
2017-10-14T19:53:17.837Z,96.60
2017-10-14T19:55:45.343Z,96.70
2017-10-14T19:58:13.239Z,96.70
2017-10-14T20:00:40.735Z,96.70
2017-10-14T20:03:08.289Z,96.80
2017-10-14T20:05:35.787Z,97.20
2017-10-14T20:08:03.703Z,97.60
2017-10-14T20:10:32.125Z,97.60
2017-10-14T20:13:00.025Z,97.60
2017-10-14T20:15:27.507Z,97.60
2017-10-14T20:17:55.008Z,97.40
2017-10-14T20:20:22.487Z,97.30
2017-10-14T20:22:51.940Z,97.30
2017-10-14T20:25:19.455Z,97.20
2017-10-14T20:27:46.975Z,96.90
2017-10-14T20:30:14.491Z,96.90
2017-10-14T20:32:42.027Z,97.20
2017-10-14T20:35:09.551Z,97.00
2017-10-14T20:37:37.059Z,97.30
2017-10-14T20:40:05.157Z,97.40
2017-10-14T20:42:32.650Z,97.30
2017-10-14T20:45:00.159Z,97.10
2017-10-14T20:47:29.656Z,97.00
2017-10-14T20:49:57.138Z,97.10
2017-10-14T20:52:24.672Z,97.20
2017-10-14T20:54:52.177Z,97.30
2017-10-14T20:57:20.071Z,97.30
2017-10-14T20:59:47.572Z,97.40
2017-10-14T21:02:16.015Z,97.60
2017-10-14T21:04:43.546Z,97.80
2017-10-14T21:07:11.051Z,97.90
2017-10-14T21:09:39.765Z,97.90
2017-10-14T21:12:07.281Z,98.10
2017-10-14T21:14:34.788Z,98.30
2017-10-14T21:17:02.314Z,98.30
2017-10-14T21:19:29.813Z,98.60
2017-10-14T21:21:57.320Z,98.60
2017-10-14T21:24:24.802Z,98.30
2017-10-14T21:26:53.079Z,98.20
2017-10-14T21:29:20.565Z,97.90
2017-10-14T21:31:50.009Z,97.90
2017-10-14T21:34:17.509Z,97.90
2017-10-14T21:36:45.008Z,98.30
2017-10-14T21:39:12.922Z,98.70
2017-10-14T21:41:40.761Z,98.70
2017-10-14T21:44:08.295Z,98.70
2017-10-14T21:46:37.104Z,98.60
2017-10-14T21:49:04.619Z,98.60
2017-10-14T21:51:32.114Z,98.60
2017-10-14T21:53:59.619Z,98.30
2017-10-14T21:56:27.129Z,98.20
2017-10-14T21:58:55.638Z,98.50
2017-10-14T22:01:23.154Z,98.50
2017-10-14T22:03:51.071Z,98.80
2017-10-14T22:06:19.466Z,98.80
2017-10-14T22:08:47.847Z,98.50
2017-10-14T22:11:15.378Z,98.30
2017-10-14T22:13:42.892Z,98.40
2017-10-14T22:16:10.804Z,99.00
2017-10-14T22:18:38.327Z,99.00
2017-10-14T22:21:06.220Z,99.40
2017-10-14T22:23:34.623Z,99.40
2017-10-14T22:26:02.111Z,99.40
2017-10-14T22:28:29.619Z,99.50
2017-10-14T22:30:58.078Z,99.40
2017-10-14T22:33:25.986Z,99.20
2017-10-14T22:35:53.471Z,99.20
2017-10-14T22:38:20.983Z,99.10
2017-10-14T22:40:48.479Z,99.20
2017-10-14T22:43:16.021Z,99.20
2017-10-14T22:45:43.555Z,99.20
2017-10-14T22:48:11.043Z,99.10
2017-10-14T22:50:39.298Z,99.00
2017-10-14T22:53:07.451Z,99.00
2017-10-14T22:55:35.343Z,98.70
2017-10-14T22:58:02.881Z,98.70
2017-10-14T23:00:30.417Z,98.50
2017-10-14T23:02:58.387Z,98.50
2017-10-14T23:05:26.295Z,98.60
2017-10-14T23:07:53.790Z,98.60
2017-10-14T23:10:21.639Z,98.70
2017-10-14T23:12:49.606Z,98.70
2017-10-14T23:15:17.887Z,98.80
2017-10-14T23:17:47.115Z,98.90
2017-10-14T23:20:14.656Z,98.90
2017-10-14T23:22:42.510Z,98.90
2017-10-14T23:25:10.045Z,99.00
2017-10-14T23:27:37.597Z,99.10
2017-10-14T23:30:05.120Z,99.00
2017-10-14T23:32:33.028Z,99.10
2017-10-14T23:35:00.553Z,99.10
2017-10-14T23:37:30.102Z,99.20
2017-10-14T23:39:58.461Z,99.30
2017-10-14T23:42:25.976Z,99.40
2017-10-14T23:44:53.478Z,99.40
2017-10-14T23:47:20.990Z,99.30
2017-10-14T23:49:48.512Z,99.10
2017-10-14T23:52:16.021Z,99.00
2017-10-14T23:54:43.559Z,99.10
2017-10-14T23:57:11.060Z,99.20
2017-10-14T23:59:39.268Z,99.30
